Air Resources Laboratory banner image
Air Resources Laboratory web site National Oceanic and Atmospheric Administration (NOAA)

nm metar


KABQ 110852Z 07007KT 10SM SCT070 BKN090 23/13 A3034 RMK AO2 SLP183 T02280133
 56005=
KAEG 110855Z AUTO 35003KT 10SM CLR 18/13 A3038 RMK AO2 T01750125=
KALM 110855Z AUTO 03003KT 10SM CLR 24/13 A3023 RMK AO2=
KATS 110855Z AUTO 00000KT 10SM FEW065 26/16 A3024 RMK AO2=
KCAO 110855Z AUTO 26005KT 10SM CLR 19/14 A3034 RMK AO2 SLP205 T01890144 56006=
KCNM 110853Z AUTO 17003KT 10SM CLR 25/14 A3019 RMK AO2 SLP158 T02500144 58003 $=
KCVN 110856Z AUTO 36006KT 10SM CLR 19/16 A3030 RMK AO2 SLP219 T01890161 58003=
KCVS 110858Z AUTO 04004KT 10SM FEW110 BKN180 20/16 A3028 RMK AO2 SLP198
 T02030157 58005 $=
KDMN 110853Z AUTO 13003KT 10SM CLR 21/17 A3023 RMK AO2 SLP153 T02110167 50001=
KFMN 110853Z AUTO 09006KT 10SM CLR 22/11 A3033 RMK AO2 SLP198 T02170111 50000=
KGNT 110855Z AUTO 00000KT 10SM SCT120 16/14 A3045 RMK AO2 T01550136=
KGUP 110853Z AUTO 00000KT 10SM CLR 16/13 A3040 RMK AO2 SLP118 T01610128 56002=
KHMN 110858Z AUTO 00000KT 10SM OVC140 25/14 A3024 RMK AO2 SLP167 T02450143
 58003 $=
KHOB 110855Z AUTO 13003KT 10SM SCT048 OVC120 24/14 A3023 RMK AO2=
KLAM 110855Z AUTO 23007KT 10SM CLR 17/10 A3049 RMK AO2 T01690102=
KLRU 110855Z AUTO 12003KT 10SM CLR 25/12 A3024 RMK AO2 T02500122=
KLVS 110853Z AUTO 03004KT 10SM CLR 12/11 A3047 RMK AO2 SLP226 T01220106 58008=
KONM 110855Z AUTO 33004KT 10SM OVC110 24/11 A3029 RMK AO2 T02370111=
KROW 110851Z AUTO 35003KT 10SM TS OVC060 26/16 A3023 RMK AO2 LTG DSNT NW
 TSB27E45B48 SLP165 T02560161 58003=
KRTN 110853Z AUTO 03005KT 10SM CLR 13/12 A3043 RMK AO2 SLP231 T01330122 56009=
KSAF 110853Z AUTO 00000KT 10SM SCT120 17/13 A3042 RMK AO2 SLP211 T01670133
 56007=
KSKX 110856Z AUTO 00000KT 10SM CLR 13/09 A3050 RMK AO2 SLP256 T01280094 56006=
KSRR 110855Z AUTO 20003KT 10SM 15/13 A3046 RMK AO2 TSNO=
KSVC 110855Z AUTO 07004KT 10SM SCT080 SCT120 22/15 A3031 RMK AO2 LTG DSNT SW
 T02200150=
KTCC 110853Z AUTO 03003KT 10SM CLR 20/15 A3026 RMK AO2 SLP182 T02000150 58003=
KTCS 110853Z AUTO 32007KT 10SM OVC085 23/13 A3027 RMK AO2 LTG DSNT SW AND W
 SLP156 T02330133 56004 $=